createdAt,value
2022-11-08T00:02:24.779Z,12.30
2022-11-08T00:04:51.757Z,12.30
2022-11-08T00:07:37.093Z,12.30
2022-11-08T00:10:22.965Z,12.30
2022-11-08T00:13:08.217Z,12.30
2022-11-08T00:15:38.933Z,12.30
2022-11-08T00:18:06.542Z,12.30
2022-11-08T00:20:33.587Z,12.20
2022-11-08T00:23:00.335Z,12.20
2022-11-08T00:25:27.088Z,12.20
2022-11-08T00:27:53.827Z,12.10
2022-11-08T00:30:21.026Z,12.10
2022-11-08T00:32:47.860Z,12.10
2022-11-08T00:35:14.710Z,12.10
2022-11-08T00:37:41.500Z,12.10
2022-11-08T00:40:08.795Z,12.10
2022-11-08T00:42:35.568Z,12.10
2022-11-08T00:45:02.304Z,12.10
2022-11-08T00:47:29.078Z,12.00
2022-11-08T00:49:55.789Z,12.00
2022-11-08T00:52:22.503Z,12.00
2022-11-08T00:54:49.219Z,12.00
2022-11-08T00:57:15.969Z,11.90
2022-11-08T00:59:43.033Z,12.00
2022-11-08T01:02:10.880Z,11.90
2022-11-08T01:04:37.768Z,11.90
2022-11-08T01:07:04.537Z,11.90
2022-11-08T01:09:31.314Z,11.90
2022-11-08T01:11:58.144Z,12.00
2022-11-08T01:14:24.902Z,11.90
2022-11-08T01:16:52.318Z,11.90
2022-11-08T01:19:19.113Z,11.90
2022-11-08T01:21:45.890Z,11.90
2022-11-08T01:24:12.630Z,11.90
2022-11-08T01:26:39.382Z,11.80
2022-11-08T01:29:06.132Z,11.90
2022-11-08T01:31:35.886Z,11.80
2022-11-08T01:34:02.633Z,11.90
2022-11-08T01:36:29.891Z,11.80
2022-11-08T01:38:57.108Z,11.80
2022-11-08T01:41:25.295Z,11.80
2022-11-08T01:43:59.831Z,11.70
2022-11-08T01:46:37.963Z,11.80
2022-11-08T01:49:15.548Z,11.70
2022-11-08T01:51:51.253Z,11.80
2022-11-08T01:54:23.963Z,11.80
2022-11-08T01:56:50.942Z,11.80
2022-11-08T01:59:18.236Z,11.70
2022-11-08T02:01:45.340Z,11.70
2022-11-08T02:04:13.487Z,11.70
2022-11-08T02:06:40.765Z,11.70
2022-11-08T02:09:09.782Z,11.70
2022-11-08T02:11:36.772Z,11.60
2022-11-08T02:14:04.741Z,11.60
2022-11-08T02:16:31.795Z,11.60
2022-11-08T02:18:58.707Z,11.60
2022-11-08T02:21:30.388Z,11.60
2022-11-08T02:23:59.188Z,11.60
2022-11-08T02:26:29.422Z,11.50
2022-11-08T02:28:56.187Z,11.50
2022-11-08T02:31:23.186Z,11.50
2022-11-08T02:33:50.122Z,11.50
2022-11-08T02:36:22.494Z,11.50
2022-11-08T02:38:53.219Z,11.50
2022-11-08T02:41:20.028Z,11.40
2022-11-08T02:43:46.743Z,11.40
2022-11-08T02:46:13.472Z,11.40
2022-11-08T02:48:40.200Z,11.40
2022-11-08T02:51:06.956Z,11.40
2022-11-08T02:53:33.685Z,11.40
2022-11-08T02:56:00.429Z,11.30
2022-11-08T02:58:28.061Z,11.40
2022-11-08T03:00:54.980Z,11.30
2022-11-08T03:03:21.806Z,11.30
2022-11-08T03:05:48.955Z,11.30
2022-11-08T03:08:16.150Z,11.30
2022-11-08T03:10:43.216Z,11.30
2022-11-08T03:13:10.025Z,11.30
2022-11-08T03:15:36.744Z,11.30
2022-11-08T03:18:03.675Z,11.30
2022-11-08T03:20:33.157Z,11.20
2022-11-08T03:23:01.943Z,11.20
2022-11-08T03:25:30.346Z,11.20
2022-11-08T03:28:02.034Z,11.20
2022-11-08T03:30:28.770Z,11.20
2022-11-08T03:32:55.692Z,11.20
2022-11-08T03:35:22.435Z,11.20
2022-11-08T03:37:53.047Z,11.10
2022-11-08T03:40:19.968Z,11.20
2022-11-08T03:42:46.847Z,11.10
2022-11-08T03:45:15.032Z,11.10
2022-11-08T03:47:46.425Z,11.10
2022-11-08T03:50:14.709Z,11.00
2022-11-08T03:52:49.837Z,11.10
2022-11-08T03:55:18.130Z,11.10
2022-11-08T03:57:46.683Z,11.00
2022-11-08T04:00:15.642Z,11.00
2022-11-08T04:02:42.411Z,11.00
2022-11-08T04:05:10.871Z,11.00
2022-11-08T04:07:37.976Z,11.00
2022-11-08T04:10:06.426Z,11.00
2022-11-08T04:12:51.805Z,11.00
2022-11-08T04:15:21.734Z,10.90
2022-11-08T04:18:08.841Z,10.90
2022-11-08T04:20:58.219Z,10.90
2022-11-08T04:23:26.084Z,10.90
2022-11-08T04:26:05.213Z,10.90
2022-11-08T04:28:33.924Z,10.90
2022-11-08T04:31:03.823Z,10.90
2022-11-08T04:33:30.877Z,10.90
2022-11-08T04:36:01.850Z,10.90
2022-11-08T04:38:30.002Z,10.80
2022-11-08T04:41:05.534Z,10.80
2022-11-08T04:43:32.946Z,10.80
2022-11-08T04:46:08.557Z,10.80
2022-11-08T04:48:35.577Z,10.80
2022-11-08T04:51:13.244Z,10.70
2022-11-08T04:53:41.027Z,10.70
2022-11-08T04:56:12.588Z,10.70
2022-11-08T04:58:44.437Z,10.70
2022-11-08T05:01:14.889Z,10.70
2022-11-08T05:03:41.891Z,10.70
2022-11-08T05:06:13.713Z,10.60
2022-11-08T05:08:41.119Z,10.60
2022-11-08T05:11:16.263Z,10.70
2022-11-08T05:13:43.716Z,10.60
2022-11-08T05:16:22.474Z,10.60
2022-11-08T05:18:49.412Z,10.60
2022-11-08T05:21:36.879Z,10.60
2022-11-08T05:24:05.494Z,10.60
2022-11-08T05:26:35.654Z,10.60
2022-11-08T05:29:02.449Z,10.60
2022-11-08T05:31:29.291Z,10.60
2022-11-08T05:33:56.117Z,10.60
2022-11-08T05:36:23.177Z,10.60
2022-11-08T05:38:49.933Z,10.60
2022-11-08T05:41:19.008Z,10.60
2022-11-08T05:43:47.664Z,10.60
2022-11-08T05:46:14.541Z,10.60
2022-11-08T05:48:45.254Z,10.70
2022-11-08T05:51:13.427Z,10.70
2022-11-08T05:53:41.019Z,10.70
2022-11-08T05:56:08.713Z,10.70
2022-11-08T05:58:35.919Z,10.70
2022-11-08T06:01:07.203Z,10.70
2022-11-08T06:03:34.653Z,10.70
2022-11-08T06:06:07.453Z,10.80
2022-11-08T06:08:34.630Z,10.80
2022-11-08T06:11:03.339Z,10.80
2022-11-08T06:13:30.314Z,10.70
2022-11-08T06:16:00.889Z,10.80
2022-11-08T06:18:28.635Z,10.70
2022-11-08T06:20:55.546Z,10.80
2022-11-08T06:23:22.309Z,10.80
2022-11-08T06:25:49.098Z,10.80
2022-11-08T06:28:15.843Z,10.80
2022-11-08T06:30:42.647Z,10.80
2022-11-08T06:33:09.365Z,10.70
2022-11-08T06:35:37.028Z,10.80
2022-11-08T06:38:09.012Z,10.80
2022-11-08T06:40:37.664Z,10.80
2022-11-08T06:43:04.575Z,10.80
2022-11-08T06:45:31.411Z,10.80
2022-11-08T06:48:02.502Z,10.80
2022-11-08T06:50:30.552Z,10.80
2022-11-08T06:53:02.497Z,10.80
2022-11-08T06:55:29.559Z,10.90
2022-11-08T06:57:56.571Z,10.90
2022-11-08T07:00:23.605Z,10.90
2022-11-08T07:02:59.156Z,10.90
2022-11-08T07:05:27.257Z,10.90
2022-11-08T07:07:54.547Z,10.90
2022-11-08T07:10:23.382Z,10.90
2022-11-08T07:13:05.253Z,10.90
2022-11-08T07:15:33.127Z,10.90
2022-11-08T07:18:05.317Z,11.00
2022-11-08T07:20:32.405Z,11.00
2022-11-08T07:22:59.479Z,11.00
2022-11-08T07:25:27.133Z,11.00
2022-11-08T07:27:58.071Z,11.10
2022-11-08T07:30:25.757Z,11.00
2022-11-08T07:32:52.945Z,11.00
2022-11-08T07:35:19.681Z,11.00
2022-11-08T07:37:46.447Z,11.00
2022-11-08T07:40:14.006Z,11.00
2022-11-08T07:43:09.519Z,10.90
2022-11-08T07:45:28.153Z,11.00
2022-11-08T07:48:05.528Z,11.00
2022-11-08T07:50:36.611Z,11.10
2022-11-08T07:53:03.563Z,11.10
2022-11-08T07:55:30.335Z,11.10
2022-11-08T07:58:02.996Z,11.10
2022-11-08T08:00:30.916Z,11.20
2022-11-08T08:03:02.088Z,11.10
2022-11-08T08:05:30.050Z,11.10
2022-11-08T08:07:58.109Z,11.20
2022-11-08T08:10:25.597Z,11.20
2022-11-08T08:12:52.329Z,11.30
2022-11-08T08:15:19.154Z,11.30
2022-11-08T08:17:46.066Z,11.30
2022-11-08T08:20:13.339Z,11.30
2022-11-08T08:22:47.745Z,11.40
2022-11-08T08:25:15.167Z,11.40
2022-11-08T08:27:47.346Z,11.40
2022-11-08T08:30:14.765Z,11.30
2022-11-08T08:32:41.651Z,11.40
2022-11-08T08:35:08.969Z,11.40
2022-11-08T08:37:35.923Z,11.40
2022-11-08T08:40:02.705Z,11.50
2022-11-08T08:42:29.783Z,11.50
2022-11-08T08:44:56.535Z,11.50
2022-11-08T08:47:23.271Z,11.60
2022-11-08T08:49:49.999Z,11.70
2022-11-08T08:52:16.809Z,11.70
2022-11-08T08:54:43.510Z,11.60
2022-11-08T08:57:10.341Z,11.70
2022-11-08T09:02:24.059Z,11.70
2022-11-08T09:04:50.814Z,11.80
2022-11-08T09:07:17.585Z,11.70
2022-11-08T09:09:44.344Z,11.70
2022-11-08T09:12:14.384Z,11.80
2022-11-08T09:14:41.499Z,11.90
2022-11-08T09:17:08.206Z,11.90
2022-11-08T09:19:35.597Z,12.00
2022-11-08T09:22:02.392Z,12.00
2022-11-08T09:24:29.300Z,12.00
2022-11-08T09:26:56.064Z,12.00
2022-11-08T09:29:22.816Z,12.10
2022-11-08T09:31:49.785Z,12.20
2022-11-08T09:34:19.141Z,12.20
2022-11-08T09:36:48.514Z,12.20
2022-11-08T09:39:15.385Z,12.30
2022-11-08T09:42:04.650Z,12.30
2022-11-08T09:45:06.866Z,12.30
2022-11-08T09:47:38.946Z,12.40
2022-11-08T09:50:22.034Z,12.40
2022-11-08T09:52:58.187Z,12.40
2022-11-08T09:55:30.025Z,12.40
2022-11-08T09:58:07.971Z,12.40
2022-11-08T10:00:36.429Z,12.40
2022-11-08T10:03:03.832Z,12.50
2022-11-08T10:05:41.682Z,12.50
2022-11-08T10:08:33.267Z,12.60
2022-11-08T10:11:38.086Z,12.60
2022-11-08T10:14:15.061Z,12.70
2022-11-08T10:16:52.064Z,12.80
2022-11-08T10:19:34.989Z,12.80
2022-11-08T10:22:40.309Z,12.80
2022-11-08T10:25:19.949Z,12.80
2022-11-08T10:27:46.823Z,12.80
2022-11-08T10:30:21.930Z,12.80
2022-11-08T10:32:52.229Z,12.80
2022-11-08T10:35:26.118Z,12.90
2022-11-08T10:37:54.658Z,12.90
2022-11-08T10:40:41.428Z,12.90
2022-11-08T10:43:26.415Z,13.10
2022-11-08T10:45:53.225Z,13.30
2022-11-08T10:48:20.231Z,13.30
2022-11-08T10:50:50.785Z,13.40
2022-11-08T10:53:29.137Z,13.50
2022-11-08T10:56:01.170Z,13.50
2022-11-08T10:58:36.378Z,13.60
2022-11-08T11:01:16.389Z,13.60
2022-11-08T11:03:44.668Z,13.60
2022-11-08T11:06:32.648Z,13.70
2022-11-08T11:09:05.138Z,13.70
2022-11-08T11:11:31.816Z,13.80
2022-11-08T11:14:13.172Z,13.90
2022-11-08T11:16:52.117Z,13.90
2022-11-08T11:19:18.900Z,14.00
2022-11-08T11:21:49.206Z,14.00
2022-11-08T11:24:20.694Z,14.00
2022-11-08T11:26:56.862Z,14.00
2022-11-08T11:29:31.836Z,14.00
2022-11-08T11:31:59.382Z,14.10
2022-11-08T11:34:56.005Z,14.10
2022-11-08T11:37:28.409Z,14.20
2022-11-08T11:40:04.130Z,14.20
2022-11-08T11:42:49.749Z,14.30
2022-11-08T11:45:41.509Z,14.30
2022-11-08T11:48:42.540Z,14.30
2022-11-08T11:51:10.818Z,14.40
2022-11-08T11:53:39.793Z,14.40
2022-11-08T11:56:26.038Z,14.40
2022-11-08T11:58:58.489Z,14.40
2022-11-08T12:01:25.220Z,14.50
2022-11-08T12:04:21.047Z,14.50
2022-11-08T12:07:05.007Z,14.60
2022-11-08T12:09:53.911Z,14.60
2022-11-08T12:12:35.870Z,14.70
2022-11-08T12:15:53.378Z,14.70
2022-11-08T12:18:48.344Z,14.80
2022-11-08T12:21:29.125Z,14.80
2022-11-08T12:23:55.876Z,14.90
2022-11-08T12:26:25.345Z,15.00
2022-11-08T12:29:23.173Z,15.10
2022-11-08T12:32:05.184Z,15.10
2022-11-08T12:34:46.583Z,15.30
2022-11-08T12:37:13.347Z,15.30
2022-11-08T12:39:47.202Z,15.50
2022-11-08T12:42:14.466Z,15.50
2022-11-08T12:44:59.611Z,15.50
2022-11-08T12:47:46.241Z,15.60
2022-11-08T12:50:37.470Z,15.70
2022-11-08T12:53:25.537Z,15.80
2022-11-08T12:55:55.540Z,15.80
2022-11-08T12:58:39.348Z,15.90
2022-11-08T13:01:09.849Z,16.00
2022-11-08T13:03:51.599Z,16.00
2022-11-08T13:06:24.336Z,16.00
2022-11-08T13:09:21.554Z,16.00
2022-11-08T13:11:52.930Z,16.00
2022-11-08T13:14:20.167Z,16.00
2022-11-08T13:17:14.089Z,16.00
2022-11-08T13:19:46.815Z,16.00
2022-11-08T13:22:29.120Z,16.00
2022-11-08T13:24:59.493Z,16.00
2022-11-08T13:27:32.298Z,16.00
2022-11-08T13:30:11.623Z,16.10
2022-11-08T13:32:54.277Z,16.10
2022-11-08T13:35:25.642Z,16.10
2022-11-08T13:38:01.536Z,16.10
2022-11-08T13:40:39.368Z,16.20
2022-11-08T13:43:27.858Z,16.10
2022-11-08T13:45:55.349Z,16.10
2022-11-08T13:48:26.224Z,16.20
2022-11-08T13:51:24.883Z,16.10
2022-11-08T13:53:54.815Z,16.10
2022-11-08T13:56:40.516Z,16.10
2022-11-08T13:59:34.861Z,16.20
2022-11-08T14:02:04.362Z,16.20
2022-11-08T14:04:38.712Z,16.20
2022-11-08T14:07:26.743Z,16.10
2022-11-08T14:10:04.473Z,16.20
2022-11-08T14:12:44.557Z,16.10
2022-11-08T14:15:24.434Z,16.20
2022-11-08T14:18:05.548Z,16.20
2022-11-08T14:20:43.441Z,16.20
2022-11-08T14:23:20.362Z,16.30
2022-11-08T14:25:51.731Z,16.30
2022-11-08T14:28:30.788Z,16.30
2022-11-08T14:30:59.001Z,16.30
2022-11-08T14:33:27.738Z,16.30
2022-11-08T14:35:58.865Z,16.30
2022-11-08T14:38:30.864Z,16.30
2022-11-08T14:41:02.713Z,16.30
2022-11-08T14:43:29.838Z,16.30
2022-11-08T14:45:58.253Z,16.40
2022-11-08T14:48:28.757Z,16.30
2022-11-08T14:51:03.783Z,16.30
2022-11-08T14:53:32.716Z,16.30
2022-11-08T14:56:18.354Z,16.30
2022-11-08T14:58:45.950Z,16.30
2022-11-08T15:01:15.904Z,16.30
2022-11-08T15:03:55.648Z,16.30
2022-11-08T15:06:30.842Z,16.20
2022-11-08T15:08:57.912Z,16.30
2022-11-08T15:11:43.140Z,16.20
2022-11-08T15:14:18.394Z,16.20
2022-11-08T15:17:01.505Z,16.20
2022-11-08T15:19:39.330Z,16.20
2022-11-08T15:22:32.064Z,16.20
2022-11-08T15:25:15.687Z,16.30
2022-11-08T15:27:57.035Z,16.20
2022-11-08T15:30:29.758Z,16.20
2022-11-08T15:32:56.767Z,16.10
2022-11-08T15:35:33.878Z,16.10
2022-11-08T15:38:30.423Z,16.10
2022-11-08T15:41:03.648Z,16.10
2022-11-08T15:43:33.486Z,16.00
2022-11-08T15:46:01.602Z,16.00
2022-11-08T15:48:28.562Z,15.90
2022-11-08T15:50:59.272Z,15.90
2022-11-08T15:53:26.926Z,15.90
2022-11-08T15:56:02.713Z,15.80
2022-11-08T15:58:35.000Z,15.80
2022-11-08T16:01:03.293Z,15.80
2022-11-08T16:03:31.117Z,15.80
2022-11-08T16:05:57.927Z,15.80
2022-11-08T16:08:25.062Z,15.80
2022-11-08T16:10:54.246Z,15.70
2022-11-08T16:13:27.355Z,15.70
2022-11-08T16:15:54.761Z,15.70
2022-11-08T16:18:21.847Z,15.60
2022-11-08T16:20:48.747Z,15.60
2022-11-08T16:23:15.528Z,15.60
2022-11-08T16:25:51.063Z,15.60
2022-11-08T16:28:30.247Z,15.50
2022-11-08T16:30:57.024Z,15.50
2022-11-08T16:33:28.692Z,15.50
2022-11-08T16:36:05.964Z,15.50
2022-11-08T16:38:37.148Z,15.50
2022-11-08T16:41:04.968Z,15.40
2022-11-08T16:43:32.163Z,15.50
2022-11-08T16:46:05.936Z,15.40
2022-11-08T16:48:33.562Z,15.50
2022-11-08T16:51:03.184Z,15.40
2022-11-08T16:53:30.237Z,15.40
2022-11-08T16:55:57.283Z,15.40
2022-11-08T16:58:25.127Z,15.40
2022-11-08T17:00:51.932Z,15.40
2022-11-08T17:03:24.558Z,15.30
2022-11-08T17:05:52.216Z,15.30
2022-11-08T17:08:21.718Z,15.30
2022-11-08T17:10:48.828Z,15.30
2022-11-08T17:13:17.645Z,15.30
2022-11-08T17:15:44.871Z,15.30
2022-11-08T17:18:17.889Z,15.30
2022-11-08T17:20:45.090Z,15.30
2022-11-08T17:23:12.269Z,15.30
2022-11-08T17:25:40.347Z,15.30
2022-11-08T17:28:07.625Z,15.30
2022-11-08T17:30:35.335Z,15.30
2022-11-08T17:33:02.086Z,15.30
2022-11-08T17:35:29.010Z,15.30
2022-11-08T17:37:56.173Z,15.20
2022-11-08T17:40:22.996Z,15.20
2022-11-08T17:42:49.756Z,15.20
2022-11-08T17:45:16.516Z,15.20
2022-11-08T17:47:43.305Z,15.20
2022-11-08T17:50:10.321Z,15.20
2022-11-08T17:52:37.583Z,15.20
2022-11-08T17:55:04.883Z,15.20
2022-11-08T17:57:31.735Z,15.10
2022-11-08T17:59:58.616Z,15.10
2022-11-08T18:02:27.494Z,15.10
2022-11-08T18:04:54.820Z,15.10
2022-11-08T18:07:21.711Z,15.10
2022-11-08T18:09:48.544Z,15.10
2022-11-08T18:12:15.350Z,15.10
2022-11-08T18:14:42.363Z,15.10
2022-11-08T18:17:09.105Z,15.10
2022-11-08T18:19:35.873Z,15.10
2022-11-08T18:22:04.837Z,15.00
2022-11-08T18:24:31.795Z,15.00
2022-11-08T18:26:58.978Z,15.00
2022-11-08T18:29:25.781Z,15.00
2022-11-08T18:31:52.780Z,15.00
2022-11-08T18:34:19.718Z,15.00
2022-11-08T18:36:48.923Z,15.00
2022-11-08T18:39:19.474Z,15.00
2022-11-08T18:41:46.719Z,15.00
2022-11-08T18:44:13.520Z,14.90
2022-11-08T18:46:43.211Z,14.90
2022-11-08T18:49:10.811Z,14.90
2022-11-08T18:51:37.695Z,14.90
2022-11-08T18:54:04.481Z,14.90
2022-11-08T18:56:31.392Z,14.90
2022-11-08T18:58:58.225Z,14.80
2022-11-08T19:01:25.262Z,14.80
2022-11-08T19:03:52.648Z,14.80
2022-11-08T19:06:19.652Z,14.80
2022-11-08T19:08:46.534Z,14.80
2022-11-08T19:11:14.650Z,14.70
2022-11-08T19:13:41.959Z,14.70
2022-11-08T19:16:15.105Z,14.70
2022-11-08T19:18:42.633Z,14.70
2022-11-08T19:21:12.393Z,14.70
2022-11-08T19:23:39.411Z,14.70
2022-11-08T19:26:27.965Z,14.70
2022-11-08T19:28:55.674Z,14.70
2022-11-08T19:31:24.421Z,14.70
2022-11-08T19:33:52.395Z,14.70
2022-11-08T19:36:21.752Z,14.70
2022-11-08T19:38:48.557Z,14.60
2022-11-08T19:41:18.451Z,14.70
2022-11-08T19:43:45.796Z,14.60
2022-11-08T19:46:15.029Z,14.60
2022-11-08T19:48:43.896Z,14.60
2022-11-08T19:51:19.526Z,14.60
2022-11-08T19:53:46.397Z,14.50
2022-11-08T19:56:19.952Z,14.50
2022-11-08T19:58:47.074Z,14.50
2022-11-08T20:01:19.659Z,14.50
2022-11-08T20:03:46.745Z,14.50
2022-11-08T20:06:15.067Z,14.50
2022-11-08T20:08:41.993Z,14.50
2022-11-08T20:11:18.089Z,14.50
2022-11-08T20:13:44.976Z,14.50
2022-11-08T20:16:23.649Z,14.50
2022-11-08T20:18:50.398Z,14.50
2022-11-08T20:21:18.063Z,14.50
2022-11-08T20:23:44.997Z,14.50
2022-11-08T20:26:18.413Z,14.50
2022-11-08T20:28:55.853Z,14.50
2022-11-08T20:31:23.983Z,14.40
2022-11-08T20:33:53.046Z,14.40
2022-11-08T20:36:22.491Z,14.40
2022-11-08T20:38:49.826Z,14.30
2022-11-08T20:41:17.851Z,14.40
2022-11-08T20:43:46.648Z,14.40
2022-11-08T20:46:16.462Z,14.30
2022-11-08T20:48:44.336Z,14.30
2022-11-08T20:51:13.281Z,14.30
2022-11-08T20:53:40.196Z,14.30
2022-11-08T20:56:10.706Z,14.30
2022-11-08T20:58:37.712Z,14.30
2022-11-08T21:01:06.230Z,14.30
2022-11-08T21:03:33.054Z,14.20
2022-11-08T21:06:02.518Z,14.20
2022-11-08T21:08:58.439Z,14.20
2022-11-08T21:11:17.808Z,14.20
2022-11-08T21:13:46.332Z,14.20
2022-11-08T21:16:29.195Z,14.20
2022-11-08T21:18:58.665Z,14.20
2022-11-08T21:21:26.108Z,14.20
2022-11-08T21:23:54.418Z,14.20
2022-11-08T21:26:22.325Z,14.10
2022-11-08T21:28:49.262Z,14.10
2022-11-08T21:31:16.374Z,14.10
2022-11-08T21:33:43.315Z,14.10
2022-11-08T21:36:10.562Z,14.10
2022-11-08T21:38:38.494Z,14.10
2022-11-08T21:41:07.288Z,14.00
2022-11-08T21:43:35.943Z,14.10
2022-11-08T21:46:14.929Z,14.00
2022-11-08T21:48:41.857Z,14.10
2022-11-08T21:51:08.831Z,14.10
2022-11-08T21:53:39.719Z,14.00
2022-11-08T21:56:12.454Z,14.10
2022-11-08T21:58:39.365Z,14.00
2022-11-08T22:01:06.914Z,14.10
2022-11-08T22:03:34.330Z,14.00
2022-11-08T22:06:01.163Z,14.00
2022-11-08T22:08:28.050Z,14.00
2022-11-08T22:10:54.944Z,14.00
2022-11-08T22:13:21.814Z,14.00
2022-11-08T22:15:48.728Z,14.00
2022-11-08T22:18:19.764Z,14.10
2022-11-08T22:21:17.021Z,14.10
2022-11-08T22:23:43.735Z,14.00
2022-11-08T22:26:10.535Z,14.00
2022-11-08T22:28:37.484Z,14.00
2022-11-08T22:31:04.687Z,14.00
2022-11-08T22:33:31.529Z,14.00
2022-11-08T22:35:58.255Z,14.00
2022-11-08T22:38:25.024Z,14.00
2022-11-08T22:40:51.858Z,14.00
2022-11-08T22:43:18.629Z,13.90
2022-11-08T22:45:45.437Z,14.00
2022-11-08T22:48:12.275Z,14.00
2022-11-08T22:50:39.190Z,14.00
2022-11-08T22:53:05.990Z,14.00
2022-11-08T22:55:32.768Z,14.00
2022-11-08T22:57:59.746Z,14.00
2022-11-08T23:00:28.476Z,13.90
2022-11-08T23:02:55.281Z,14.00
2022-11-08T23:05:22.119Z,14.00
2022-11-08T23:07:48.926Z,14.00
2022-11-08T23:10:15.888Z,14.00
2022-11-08T23:13:01.143Z,14.00
2022-11-08T23:15:53.981Z,13.90
2022-11-08T23:18:22.065Z,13.90
2022-11-08T23:21:07.460Z,13.90
2022-11-08T23:23:52.778Z,13.80
2022-11-08T23:26:39.491Z,13.90
2022-11-08T23:29:24.870Z,13.90
2022-11-08T23:31:51.605Z,13.90
2022-11-08T23:34:18.358Z,13.90
2022-11-08T23:36:45.099Z,13.80
2022-11-08T23:39:12.100Z,13.80
2022-11-08T23:41:57.665Z,13.80
2022-11-08T23:44:25.553Z,13.80
2022-11-08T23:46:53.025Z,13.80
2022-11-08T23:49:20.316Z,13.80
2022-11-08T23:51:47.399Z,13.70
2022-11-08T23:54:14.476Z,13.70
2022-11-08T23:56:41.866Z,13.70
2022-11-08T23:59:13.895Z,13.70
